createdAt,value
2018-09-29T00:00:34.632Z,0
2018-09-29T00:01:34.693Z,0
2018-09-29T00:02:35.203Z,0
2018-09-29T00:03:36.991Z,0
2018-09-29T00:04:37.779Z,0
2018-09-29T00:05:38.287Z,0
2018-09-29T00:06:40.085Z,0
2018-09-29T00:07:40.588Z,0
2018-09-29T00:08:41.095Z,0
2018-09-29T00:09:41.881Z,0
2018-09-29T00:10:42.113Z,0
2018-09-29T00:11:44.179Z,0
2018-09-29T00:12:44.239Z,0
2018-09-29T00:13:45.023Z,0
2018-09-29T00:14:46.116Z,0
2018-09-29T00:15:46.618Z,0
2018-09-29T00:16:48.683Z,0
2018-09-29T00:17:48.911Z,0
2018-09-29T00:18:49.690Z,0
2018-09-29T00:19:51.027Z,0
2018-09-29T00:20:51.365Z,0
2018-09-29T00:21:51.872Z,0
2018-09-29T00:22:52.665Z,0
2018-09-29T00:23:53.171Z,0
2018-09-29T00:24:53.402Z,0
2018-09-29T00:25:55.465Z,0
2018-09-29T00:26:55.864Z,0
2018-09-29T00:27:57.650Z,0
2018-09-29T00:28:58.992Z,0
2018-09-29T00:29:59.333Z,0
2018-09-29T00:30:59.119Z,0
2018-09-29T00:31:59.633Z,0
2018-09-29T00:33:01.002Z,0
2018-09-29T00:34:01.514Z,0
2018-09-29T00:35:03.137Z,0
2018-09-29T00:36:03.927Z,0
2018-09-29T00:37:06.299Z,0
2018-09-29T00:38:06.639Z,0
2018-09-29T00:39:07.700Z,0
2018-09-29T00:40:08.220Z,0
2018-09-29T00:41:09.453Z,0
2018-09-29T00:42:10.797Z,0
2018-09-29T00:43:12.412Z,0
2018-09-29T00:44:12.197Z,0
2018-09-29T00:45:13.816Z,0
2018-09-29T00:46:13.608Z,0
2018-09-29T00:47:14.611Z,0
2018-09-29T00:48:15.682Z,0
2018-09-29T00:49:17.031Z,0
2018-09-29T00:50:17.816Z,0
2018-09-29T00:51:18.882Z,0
2018-09-29T00:52:19.947Z,0
2018-09-29T00:53:21.571Z,0
2018-09-29T00:54:21.913Z,0
2018-09-29T00:55:22.975Z,0
2018-09-29T00:56:24.324Z,0
2018-09-29T00:57:24.857Z,0
2018-09-29T00:58:25.364Z,0
2018-09-29T00:59:25.599Z,0
2018-09-29T01:00:26.663Z,0
2018-09-29T01:01:27.726Z,0
2018-09-29T01:02:28.792Z,0
2018-09-29T01:03:29.303Z,0
2018-09-29T01:04:30.087Z,0
2018-09-29T01:05:31.433Z,0
2018-09-29T01:06:32.489Z,0
2018-09-29T01:07:32.727Z,0
2018-09-29T01:08:33.510Z,0
2018-09-29T01:09:34.572Z,0
2018-09-29T01:10:35.364Z,0
2018-09-29T01:11:36.147Z,0
2018-09-29T01:12:36.933Z,0
2018-09-29T01:13:37.720Z,0
2018-09-29T01:14:38.230Z,0
2018-09-29T01:15:40.289Z,0
2018-09-29T01:16:41.075Z,0
2018-09-29T01:17:42.586Z,0
2018-09-29T01:18:42.371Z,0
2018-09-29T01:19:44.038Z,0
2018-09-29T01:20:43.776Z,0
2018-09-29T01:21:44.294Z,0
2018-09-29T01:22:45.637Z,0
2018-09-29T01:23:46.421Z,0
2018-09-29T01:24:48.054Z,0
2018-09-29T01:25:47.838Z,0
2018-09-29T01:26:48.898Z,0
2018-09-29T01:27:49.714Z,0
2018-09-29T01:28:50.222Z,0
2018-09-29T01:29:51.288Z,0
2018-09-29T01:30:52.639Z,0
2018-09-29T01:31:53.980Z,0
2018-09-29T01:32:53.769Z,0
2018-09-29T01:33:54.289Z,0
2018-09-29T01:34:55.361Z,0
2018-09-29T01:35:56.419Z,0
2018-09-29T01:36:57.759Z,0
2018-09-29T01:37:58.001Z,0
2018-09-29T01:38:58.788Z,0
2018-09-29T01:39:59.849Z,0
2018-09-29T01:41:00.086Z,0
2018-09-29T01:42:00.872Z,0
2018-09-29T01:43:01.661Z,0
2018-09-29T01:44:02.452Z,0
2018-09-29T01:45:03.513Z,0
2018-09-29T01:46:04.578Z,0
2018-09-29T01:47:05.092Z,0
2018-09-29T01:48:06.607Z,0
2018-09-29T01:49:08.228Z,0
2018-09-29T01:50:09.291Z,0
2018-09-29T01:51:09.529Z,0
2018-09-29T01:52:11.589Z,0
2018-09-29T01:53:12.108Z,0
2018-09-29T01:54:12.337Z,0
2018-09-29T01:55:13.398Z,0
2018-09-29T01:56:13.908Z,0
2018-09-29T01:57:14.977Z,0
2018-09-29T01:58:15.385Z,0
2018-09-29T01:59:16.172Z,0
2018-09-29T02:00:17.692Z,0
2018-09-29T02:01:18.201Z,0
2018-09-29T02:02:19.539Z,0
2018-09-29T02:03:20.884Z,0
2018-09-29T02:04:21.117Z,0
2018-09-29T02:05:23.183Z,0
2018-09-29T02:06:22.971Z,0
2018-09-29T02:07:24.040Z,0
2018-09-29T02:08:24.901Z,0
2018-09-29T02:09:25.412Z,0
2018-09-29T02:10:26.197Z,0
2018-09-29T02:11:26.979Z,0
2018-09-29T02:12:29.041Z,0
2018-09-29T02:13:29.550Z,0
2018-09-29T02:14:30.333Z,0
2018-09-29T02:15:30.843Z,0
2018-09-29T02:16:31.906Z,0
2018-09-29T02:17:32.970Z,0
2018-09-29T02:18:33.933Z,0
2018-09-29T02:19:34.442Z,0
2018-09-29T02:20:34.956Z,0
2018-09-29T02:21:35.462Z,0
2018-09-29T02:22:36.251Z,0
2018-09-29T02:23:37.035Z,0
2018-09-29T02:24:38.372Z,0
2018-09-29T02:25:39.157Z,0
2018-09-29T02:26:38.941Z,0
2018-09-29T02:27:40.727Z,0
2018-09-29T02:28:43.469Z,0
2018-09-29T02:29:43.649Z,0
2018-09-29T02:30:44.268Z,0
2018-09-29T02:31:46.160Z,0
2018-09-29T02:32:46.500Z,0
2018-09-29T02:33:47.563Z,0
2018-09-29T02:34:48.625Z,0
2018-09-29T02:35:49.244Z,0
2018-09-29T02:36:49.028Z,0
2018-09-29T02:37:50.370Z,0
2018-09-29T02:38:51.447Z,0
2018-09-29T02:39:52.066Z,0
2018-09-29T02:40:52.147Z,0
2018-09-29T02:41:53.049Z,0
2018-09-29T02:42:53.110Z,0
2018-09-29T02:43:54.457Z,0
2018-09-29T02:44:54.245Z,0
2018-09-29T02:45:55.030Z,0
2018-09-29T02:46:56.377Z,0
2018-09-29T02:47:56.447Z,0
2018-09-29T02:48:58.260Z,0
2018-09-29T02:49:59.327Z,0
2018-09-29T02:50:59.952Z,0
2018-09-29T02:52:00.291Z,0
2018-09-29T02:53:00.644Z,0
2018-09-29T02:54:01.430Z,0
2018-09-29T02:55:03.088Z,0
2018-09-29T02:56:02.874Z,0
2018-09-29T02:57:03.658Z,0
2018-09-29T02:58:05.007Z,0
2018-09-29T02:59:06.347Z,0
2018-09-29T03:00:05.857Z,0
2018-09-29T03:01:06.922Z,0
2018-09-29T03:02:07.706Z,0
2018-09-29T03:03:09.328Z,0
2018-09-29T03:04:09.116Z,0
2018-09-29T03:05:11.021Z,0
2018-09-29T03:06:11.527Z,0
2018-09-29T03:07:14.333Z,0
2018-09-29T03:08:14.033Z,0
2018-09-29T03:09:14.682Z,0
2018-09-29T03:10:16.023Z,0
2018-09-29T03:11:16.255Z,0
2018-09-29T03:12:18.049Z,0
2018-09-29T03:13:19.946Z,0
2018-09-29T03:14:19.732Z,0
2018-09-29T03:15:21.636Z,0
2018-09-29T03:16:21.697Z,0
2018-09-29T03:17:22.321Z,0
2018-09-29T03:18:22.104Z,0
2018-09-29T03:19:23.755Z,0
2018-09-29T03:20:23.564Z,0
2018-09-29T03:21:24.911Z,0
2018-09-29T03:22:26.536Z,0
2018-09-29T03:23:26.924Z,0
2018-09-29T03:24:28.279Z,0
2018-09-29T03:25:28.343Z,0
2018-09-29T03:26:29.687Z,0
2018-09-29T03:27:30.195Z,0
2018-09-29T03:28:30.983Z,0
2018-09-29T03:29:31.795Z,0
2018-09-29T03:30:33.692Z,0
2018-09-29T03:31:33.207Z,0
2018-09-29T03:32:34.797Z,0
2018-09-29T03:33:34.574Z,0
2018-09-29T03:34:35.913Z,0
2018-09-29T03:35:37.536Z,0
2018-09-29T03:36:37.890Z,0
2018-09-29T03:37:39.257Z,0
2018-09-29T03:38:39.318Z,0
2018-09-29T03:39:39.829Z,0
2018-09-29T03:40:41.618Z,0
2018-09-29T03:41:41.972Z,0
2018-09-29T03:42:42.761Z,0
2018-09-29T03:43:44.115Z,0
2018-09-29T03:44:44.735Z,0
2018-09-29T03:45:45.631Z,0
2018-09-29T03:46:45.691Z,0
2018-09-29T03:47:46.473Z,0
2018-09-29T03:48:47.539Z,0
2018-09-29T03:49:49.478Z,0
2018-09-29T03:50:49.563Z,0
2018-09-29T03:51:50.069Z,0
2018-09-29T03:52:51.143Z,0
2018-09-29T03:53:52.621Z,0
2018-09-29T03:54:52.965Z,0
2018-09-29T03:55:53.578Z,0
2018-09-29T03:56:53.815Z,0
2018-09-29T03:57:54.879Z,0
2018-09-29T03:58:56.501Z,0
2018-09-29T03:59:56.587Z,0
2018-09-29T04:00:57.942Z,0
2018-09-29T04:01:59.293Z,0
2018-09-29T04:02:59.913Z,0
2018-09-29T04:04:00.144Z,0
2018-09-29T04:05:02.233Z,0
2018-09-29T04:06:03.580Z,0
2018-09-29T04:07:04.363Z,0
2018-09-29T04:08:06.035Z,0
2018-09-29T04:09:06.369Z,0
2018-09-29T04:10:06.612Z,0
2018-09-29T04:11:08.231Z,0
2018-09-29T04:12:09.582Z,0
2018-09-29T04:13:09.652Z,0
2018-09-29T04:14:10.713Z,0
2018-09-29T04:15:12.657Z,0
2018-09-29T04:16:12.723Z,0
2018-09-29T04:17:13.508Z,0
2018-09-29T04:18:15.685Z,0
2018-09-29T04:19:15.211Z,0
2018-09-29T04:20:16.733Z,0
2018-09-29T04:21:17.527Z,0
2018-09-29T04:22:19.148Z,0
2018-09-29T04:23:19.232Z,0
2018-09-29T04:24:19.574Z,0
2018-09-29T04:25:19.923Z,0
2018-09-29T04:26:20.818Z,0
2018-09-29T04:27:20.882Z,0
2018-09-29T04:28:22.222Z,0
2018-09-29T04:29:23.569Z,0
2018-09-29T04:30:24.382Z,0
2018-09-29T04:31:24.726Z,0
2018-09-29T04:32:24.513Z,0
2018-09-29T04:33:25.298Z,0
2018-09-29T04:34:26.638Z,0
2018-09-29T04:35:27.700Z,0
2018-09-29T04:36:28.766Z,0
2018-09-29T04:37:29.551Z,0
2018-09-29T04:38:30.338Z,0
2018-09-29T04:39:31.122Z,0
2018-09-29T04:40:33.491Z,0
2018-09-29T04:41:33.556Z,0
2018-09-29T04:42:33.783Z,0
2018-09-29T04:43:35.845Z,0
2018-09-29T04:44:36.909Z,0
2018-09-29T04:45:37.694Z,0
2018-09-29T04:46:38.200Z,0
2018-09-29T04:47:38.983Z,0
2018-09-29T04:48:39.491Z,0
2018-09-29T04:49:40.553Z,0
2018-09-29T04:50:40.791Z,0
2018-09-29T04:51:42.300Z,0
2018-09-29T04:52:43.082Z,0
2018-09-29T04:53:43.312Z,0
2018-09-29T04:54:44.652Z,0
2018-09-29T04:55:45.162Z,0
2018-09-29T04:56:45.390Z,0
2018-09-29T04:57:47.176Z,0
2018-09-29T04:58:47.962Z,0
2018-09-29T04:59:48.468Z,0
2018-09-29T05:00:49.701Z,0
2018-09-29T05:01:51.597Z,0
2018-09-29T05:02:51.681Z,0
2018-09-29T05:03:51.462Z,0
2018-09-29T05:04:52.525Z,0
2018-09-29T05:05:52.589Z,0
2018-09-29T05:06:53.651Z,0
2018-09-29T05:07:54.437Z,0
2018-09-29T05:08:55.502Z,0
2018-09-29T05:09:56.574Z,0
2018-09-29T05:10:57.802Z,0
2018-09-29T05:11:58.313Z,0
2018-09-29T05:13:10.796Z,0
2018-09-29T05:14:11.754Z,0
2018-09-29T05:15:12.537Z,0
2018-09-29T05:16:13.322Z,0
2018-09-29T05:17:14.945Z,0
2018-09-29T05:18:14.453Z,0
2018-09-29T05:19:14.690Z,0
2018-09-29T05:20:15.756Z,0
2018-09-29T05:21:17.098Z,0
2018-09-29T05:22:17.610Z,0
2018-09-29T05:23:20.989Z,0
2018-09-29T05:24:20.292Z,0
2018-09-29T05:25:21.915Z,5.63
2018-09-29T05:26:22.533Z,5.63
2018-09-29T05:27:22.040Z,5.63
2018-09-29T05:28:22.828Z,5.63
2018-09-29T05:29:23.626Z,5.63
2018-09-29T05:30:24.132Z,5.63
2018-09-29T05:31:24.923Z,5.63
2018-09-29T05:32:25.989Z,5.63
2018-09-29T05:33:26.055Z,5.63
2018-09-29T05:34:27.290Z,5.63
2018-09-29T05:35:28.356Z,11.25
2018-09-29T05:36:28.865Z,11.25
2018-09-29T05:37:29.652Z,11.25
2018-09-29T05:38:32.191Z,11.25
2018-09-29T05:39:31.074Z,11.25
2018-09-29T05:40:32.418Z,11.25
2018-09-29T05:41:32.650Z,11.25
2018-09-29T05:42:34.717Z,16.88
2018-09-29T05:43:35.235Z,16.88
2018-09-29T05:44:36.749Z,16.88
2018-09-29T05:45:37.538Z,16.88
2018-09-29T05:46:38.327Z,11.25
2018-09-29T05:47:38.560Z,11.25
2018-09-29T05:48:40.346Z,11.25
2018-09-29T05:49:40.851Z,11.25
2018-09-29T05:50:41.362Z,11.25
2018-09-29T05:51:41.875Z,11.25
2018-09-29T05:52:43.104Z,11.25
2018-09-29T05:53:46.286Z,16.88
2018-09-29T05:54:46.393Z,16.88
2018-09-29T05:55:46.180Z,16.88
2018-09-29T05:56:46.688Z,16.88
2018-09-29T05:57:48.489Z,16.88
2018-09-29T05:58:49.556Z,16.88
2018-09-29T05:59:50.625Z,22.5
2018-09-29T06:00:51.968Z,22.5
2018-09-29T06:01:51.479Z,22.5
2018-09-29T06:02:51.989Z,22.5
2018-09-29T06:03:53.054Z,22.5
2018-09-29T06:04:54.017Z,16.88
2018-09-29T06:05:55.960Z,16.88
2018-09-29T06:06:55.385Z,22.5
2018-09-29T06:07:56.506Z,22.5
2018-09-29T06:08:57.299Z,22.5
2018-09-29T06:09:58.181Z,28.13
2018-09-29T06:10:59.248Z,28.13
2018-09-29T06:12:00.875Z,28.13
2018-09-29T06:13:02.304Z,28.13
2018-09-29T06:14:01.071Z,28.13
2018-09-29T06:15:02.313Z,28.13
2018-09-29T06:16:02.820Z,28.13
2018-09-29T06:17:03.892Z,28.13
2018-09-29T06:18:04.251Z,28.13
2018-09-29T06:19:04.760Z,28.13
2018-09-29T06:20:05.273Z,28.13
2018-09-29T06:21:07.053Z,33.75
2018-09-29T06:22:06.846Z,33.75
2018-09-29T06:23:08.192Z,39.38
2018-09-29T06:24:08.981Z,39.38
2018-09-29T06:25:09.942Z,39.38
2018-09-29T06:26:11.017Z,39.38
2018-09-29T06:27:11.529Z,39.38
2018-09-29T06:28:12.316Z,39.38
2018-09-29T06:29:13.103Z,39.38
2018-09-29T06:30:14.721Z,33.75
2018-09-29T06:31:15.517Z,33.75
2018-09-29T06:32:16.306Z,33.75
2018-09-29T06:33:17.370Z,39.38
2018-09-29T06:34:19.158Z,39.38
2018-09-29T06:35:19.473Z,39.38
2018-09-29T06:36:20.815Z,33.75
2018-09-29T06:37:21.992Z,39.38
2018-09-29T06:38:22.962Z,39.38
2018-09-29T06:39:23.601Z,33.75
2018-09-29T06:40:23.384Z,33.75
2018-09-29T06:41:24.798Z,39.38
2018-09-29T06:42:24.585Z,39.38
2018-09-29T06:43:25.947Z,39.38
2018-09-29T06:44:26.455Z,39.38
2018-09-29T06:45:27.695Z,45
2018-09-29T06:46:29.315Z,50.63
2018-09-29T06:47:29.387Z,45
2018-09-29T06:48:30.176Z,39.38
2018-09-29T06:49:31.244Z,45
2018-09-29T06:50:31.879Z,50.63
2018-09-29T06:51:32.498Z,45
2018-09-29T06:52:33.009Z,39.38
2018-09-29T06:53:33.792Z,39.38
2018-09-29T06:54:36.057Z,39.38
2018-09-29T06:55:35.844Z,45
2018-09-29T06:56:37.461Z,50.63
2018-09-29T06:57:37.805Z,56.25
2018-09-29T06:58:37.872Z,56.25
2018-09-29T06:59:38.239Z,56.25
2018-09-29T07:00:38.857Z,56.25
2018-09-29T07:01:39.926Z,56.25
2018-09-29T07:02:40.434Z,50.63
2018-09-29T07:03:41.219Z,56.25
2018-09-29T07:04:43.566Z,56.25
2018-09-29T07:05:44.117Z,56.25
2018-09-29T07:06:44.901Z,56.25
2018-09-29T07:07:45.690Z,61.88
2018-09-29T07:08:46.478Z,56.25
2018-09-29T07:09:46.988Z,50.63
2018-09-29T07:10:47.772Z,56.25
2018-09-29T07:11:48.281Z,50.63
2018-09-29T07:12:50.162Z,61.88
2018-09-29T07:13:51.125Z,67.5
2018-09-29T07:14:51.199Z,67.5
2018-09-29T07:15:51.717Z,67.5
2018-09-29T07:16:52.064Z,67.5
2018-09-29T07:17:52.848Z,73.13
2018-09-29T07:18:53.356Z,67.5
2018-09-29T07:19:54.870Z,67.5
2018-09-29T07:20:55.658Z,61.88
2018-09-29T07:21:57.301Z,67.5
2018-09-29T07:22:57.480Z,73.13
2018-09-29T07:23:58.268Z,78.75
2018-09-29T07:24:59.333Z,84.38
2018-09-29T07:25:59.468Z,90
2018-09-29T07:27:00.274Z,95.63
2018-09-29T07:28:00.785Z,101.25
2018-09-29T07:29:01.294Z,101.25
2018-09-29T07:30:02.658Z,101.25
2018-09-29T07:31:03.450Z,101.25
2018-09-29T07:32:04.809Z,101.25
2018-09-29T07:33:05.593Z,95.63
2018-09-29T07:34:06.659Z,101.25
2018-09-29T07:35:07.174Z,106.88
2018-09-29T07:36:07.579Z,106.88
2018-09-29T07:37:08.373Z,106.88
2018-09-29T07:38:08.608Z,112.5
2018-09-29T07:39:09.121Z,118.13
2018-09-29T07:40:10.464Z,112.5
2018-09-29T07:41:11.809Z,112.5
2018-09-29T07:42:13.163Z,129.38
2018-09-29T07:43:13.234Z,123.75
2018-09-29T07:44:13.746Z,135
2018-09-29T07:45:14.255Z,135
2018-09-29T07:46:15.355Z,135
2018-09-29T07:47:15.981Z,135
2018-09-29T07:48:16.774Z,135
2018-09-29T07:49:19.183Z,140.63
2018-09-29T07:50:19.227Z,135
2018-09-29T07:51:19.315Z,135
2018-09-29T07:52:19.828Z,146.25
2018-09-29T07:53:20.621Z,146.25
2018-09-29T07:54:21.967Z,146.25
2018-09-29T07:55:21.756Z,140.63
2018-09-29T07:56:22.399Z,151.88
2018-09-29T07:57:23.190Z,163.13
2018-09-29T07:58:23.698Z,185.63
2018-09-29T07:59:24.791Z,202.5
2018-09-29T08:00:25.632Z,208.13
2018-09-29T08:01:27.315Z,213.75
2018-09-29T08:02:27.880Z,202.5
2018-09-29T08:03:28.227Z,191.25
2018-09-29T08:04:29.017Z,202.5
2018-09-29T08:05:30.537Z,202.5
2018-09-29T08:06:33.996Z,191.25
2018-09-29T08:07:33.213Z,185.63
2018-09-29T08:08:33.446Z,185.63
2018-09-29T08:09:34.516Z,174.38
2018-09-29T08:10:35.861Z,163.13
2018-09-29T08:11:36.931Z,157.5
2018-09-29T08:12:37.720Z,157.5
2018-09-29T08:13:38.791Z,157.5
2018-09-29T08:14:39.302Z,157.5
2018-09-29T08:15:40.371Z,157.5
2018-09-29T08:16:41.339Z,151.88
2018-09-29T08:17:42.403Z,146.25
2018-09-29T08:18:43.477Z,140.63
2018-09-29T08:19:43.987Z,135
2018-09-29T08:20:44.780Z,135
2018-09-29T08:21:45.015Z,129.38
2018-09-29T08:22:45.806Z,129.38
2018-09-29T08:23:46.871Z,135
2018-09-29T08:24:48.215Z,140.63
2018-09-29T08:25:49.009Z,140.63
2018-09-29T08:26:50.145Z,135
2018-09-29T08:27:50.215Z,140.63
2018-09-29T08:28:52.116Z,151.88
2018-09-29T08:29:51.350Z,151.88
2018-09-29T08:30:52.420Z,151.88
2018-09-29T08:31:53.768Z,146.25
2018-09-29T08:32:54.006Z,146.25
2018-09-29T08:33:56.356Z,146.25
2018-09-29T08:34:56.426Z,163.13
2018-09-29T08:35:57.212Z,191.25
2018-09-29T08:36:58.452Z,202.5
2018-09-29T08:37:59.298Z,213.75
2018-09-29T08:39:00.085Z,264.38
2018-09-29T08:40:01.431Z,326.25
2018-09-29T08:41:01.229Z,315
2018-09-29T08:42:02.021Z,331.88
2018-09-29T08:43:03.091Z,326.25
2018-09-29T08:44:03.606Z,270
2018-09-29T08:45:05.231Z,281.25
2018-09-29T08:46:05.029Z,331.88
2018-09-29T08:47:07.110Z,343.13
2018-09-29T08:48:07.177Z,309.38
2018-09-29T08:49:07.971Z,275.63
2018-09-29T08:50:09.037Z,230.63
2018-09-29T08:51:10.103Z,236.25
2018-09-29T08:52:10.338Z,247.5
2018-09-29T08:53:13.149Z,247.5
2018-09-29T08:54:13.311Z,225
2018-09-29T08:55:14.100Z,208.13
2018-09-29T08:56:14.614Z,208.13
2018-09-29T08:57:15.599Z,213.75
2018-09-29T08:58:16.390Z,225
2018-09-29T08:59:17.179Z,219.38
2018-09-29T09:00:18.692Z,219.38
2018-09-29T09:01:19.765Z,213.75
2018-09-29T09:02:20.297Z,213.75
2018-09-29T09:03:21.366Z,208.13
2018-09-29T09:04:22.157Z,202.5
2018-09-29T09:05:22.944Z,202.5
2018-09-29T09:06:23.459Z,208.13
2018-09-29T09:07:24.709Z,208.13
2018-09-29T09:08:25.777Z,208.13
2018-09-29T09:09:28.473Z,213.75
2018-09-29T09:10:27.953Z,208.13
2018-09-29T09:11:29.305Z,191.25
2018-09-29T09:12:29.097Z,191.25
2018-09-29T09:13:30.215Z,196.88
2018-09-29T09:14:31.562Z,185.63
2018-09-29T09:15:32.631Z,185.63
2018-09-29T09:16:33.143Z,174.38
2018-09-29T09:17:34.393Z,168.75
2018-09-29T09:18:35.509Z,168.75
2018-09-29T09:19:36.581Z,174.38
2018-09-29T09:20:36.817Z,191.25
2018-09-29T09:21:38.164Z,202.5
2018-09-29T09:22:39.234Z,202.5
2018-09-29T09:23:41.041Z,185.63
2018-09-29T09:24:41.379Z,168.75
2018-09-29T09:25:42.724Z,180
2018-09-29T09:26:43.519Z,180
2018-09-29T09:27:45.193Z,180
2018-09-29T09:28:44.706Z,174.38
2018-09-29T09:29:48.701Z,168.75
2018-09-29T09:30:47.548Z,174.38
2018-09-29T09:31:49.168Z,185.63
2018-09-29T09:32:48.962Z,196.88
2018-09-29T09:33:50.311Z,196.88
2018-09-29T09:34:50.103Z,202.5
2018-09-29T09:35:50.336Z,196.88
2018-09-29T09:36:52.129Z,196.88
2018-09-29T09:37:53.647Z,208.13
2018-09-29T09:38:53.880Z,202.5
2018-09-29T09:39:54.952Z,185.63
2018-09-29T09:40:56.303Z,208.13
2018-09-29T09:41:56.376Z,241.88
2018-09-29T09:42:57.164Z,258.75
2018-09-29T09:43:58.237Z,258.75
2018-09-29T09:44:59.031Z,275.63
2018-09-29T09:46:00.105Z,298.13
2018-09-29T09:47:01.459Z,281.25
2018-09-29T09:48:02.550Z,270
2018-09-29T09:49:03.343Z,270
2018-09-29T09:50:04.414Z,270
2018-09-29T09:51:05.204Z,270
2018-09-29T09:52:06.271Z,253.13
2018-09-29T09:53:06.509Z,241.88
2018-09-29T09:54:08.148Z,247.5
2018-09-29T09:55:08.208Z,241.88
2018-09-29T09:56:11.027Z,230.63
2018-09-29T09:57:10.121Z,219.38
2018-09-29T09:58:11.660Z,208.13
2018-09-29T09:59:12.299Z,208.13
2018-09-29T10:00:13.364Z,230.63
2018-09-29T10:01:13.993Z,236.25
2018-09-29T10:02:13.506Z,236.25
2018-09-29T10:03:14.576Z,219.38
2018-09-29T10:04:15.372Z,202.5
2018-09-29T10:05:16.440Z,196.88
2018-09-29T10:06:17.165Z,202.5
2018-09-29T10:07:18.465Z,208.13
2018-09-29T10:08:19.294Z,196.88
2018-09-29T10:09:20.369Z,191.25
2018-09-29T10:10:21.718Z,202.5
2018-09-29T10:11:22.231Z,298.13
2018-09-29T10:12:23.025Z,275.63
2018-09-29T10:13:24.379Z,354.38
2018-09-29T10:14:24.176Z,264.38
2018-09-29T10:15:24.689Z,247.5
2018-09-29T10:16:25.925Z,236.25
2018-09-29T10:17:28.654Z,230.63
2018-09-29T10:18:29.217Z,230.63
2018-09-29T10:19:29.286Z,230.63
2018-09-29T10:20:30.803Z,219.38
2018-09-29T10:21:32.186Z,230.63
2018-09-29T10:22:32.534Z,247.5
2018-09-29T10:23:32.327Z,264.38
2018-09-29T10:24:33.440Z,270
2018-09-29T10:25:34.240Z,258.75
2018-09-29T10:26:35.576Z,241.88
2018-09-29T10:27:36.799Z,230.63
2018-09-29T10:28:37.014Z,230.63
2018-09-29T10:29:37.529Z,236.25
2018-09-29T10:30:40.322Z,241.88
2018-09-29T10:31:40.117Z,258.75
2018-09-29T10:32:40.922Z,281.25
2018-09-29T10:33:41.449Z,298.13
2018-09-29T10:34:41.964Z,303.75
2018-09-29T10:35:42.755Z,331.88
2018-09-29T10:36:44.381Z,343.13
2018-09-29T10:37:44.175Z,331.88
2018-09-29T10:38:44.979Z,337.5
2018-09-29T10:39:45.218Z,303.75
2018-09-29T10:40:46.288Z,303.75
2018-09-29T10:41:47.078Z,303.75
2018-09-29T10:42:48.704Z,343.13
2018-09-29T10:43:49.325Z,388.13
2018-09-29T10:44:48.836Z,365.63
2018-09-29T10:45:50.351Z,472.5
2018-09-29T10:46:50.887Z,472.5
2018-09-29T10:47:51.384Z,320.63
2018-09-29T10:48:52.483Z,315
2018-09-29T10:49:52.551Z,309.38
2018-09-29T10:50:53.900Z,309.38
2018-09-29T10:51:54.709Z,298.13
2018-09-29T10:52:57.881Z,298.13
2018-09-29T10:53:57.262Z,309.38
2018-09-29T10:54:58.061Z,315
2018-09-29T10:55:59.130Z,298.13
2018-09-29T10:56:59.643Z,253.13
2018-09-29T10:58:00.162Z,219.38
2018-09-29T10:59:02.445Z,202.5
2018-09-29T11:00:02.517Z,196.88
2018-09-29T11:01:03.646Z,196.88
2018-09-29T11:02:04.725Z,208.13
2018-09-29T11:03:05.782Z,236.25
2018-09-29T11:04:05.297Z,253.13
2018-09-29T11:05:08.146Z,270
2018-09-29T11:06:07.072Z,281.25
2018-09-29T11:07:08.141Z,309.38
2018-09-29T11:08:09.212Z,298.13
2018-09-29T11:09:10.454Z,270
2018-09-29T11:10:11.245Z,253.13
2018-09-29T11:11:12.314Z,241.88
2018-09-29T11:12:12.552Z,241.88
2018-09-29T11:13:14.626Z,247.5
2018-09-29T11:14:15.743Z,253.13
2018-09-29T11:15:16.804Z,264.38
2018-09-29T11:16:16.603Z,292.5
2018-09-29T11:17:16.842Z,286.88
2018-09-29T11:18:17.916Z,270
2018-09-29T11:19:18.778Z,264.38
2018-09-29T11:20:19.936Z,264.38
2018-09-29T11:21:21.101Z,253.13
2018-09-29T11:22:21.560Z,247.5
2018-09-29T11:23:22.401Z,230.63
2018-09-29T11:24:23.211Z,230.63
2018-09-29T11:25:24.283Z,236.25
2018-09-29T11:26:25.075Z,236.25
2018-09-29T11:27:25.864Z,225
2018-09-29T11:28:27.098Z,208.13
2018-09-29T11:29:28.344Z,196.88
2018-09-29T11:30:28.869Z,180
2018-09-29T11:31:29.405Z,168.75
2018-09-29T11:32:30.751Z,157.5
2018-09-29T11:33:32.105Z,151.88
2018-09-29T11:34:33.179Z,146.25
2018-09-29T11:35:33.970Z,140.63
2018-09-29T11:36:34.487Z,140.63
2018-09-29T11:37:36.031Z,140.63
2018-09-29T11:38:36.824Z,146.25
2018-09-29T11:39:37.149Z,157.5
2018-09-29T11:40:39.448Z,180
2018-09-29T11:41:39.082Z,185.63
2018-09-29T11:42:40.982Z,202.5
2018-09-29T11:43:42.333Z,213.75
2018-09-29T11:44:42.948Z,208.13
2018-09-29T11:45:43.296Z,202.5
2018-09-29T11:46:44.365Z,196.88
2018-09-29T11:47:44.882Z,191.25
2018-09-29T11:48:45.398Z,191.25
2018-09-29T11:49:46.642Z,196.88
2018-09-29T11:50:47.437Z,196.88
2018-09-29T11:51:48.508Z,196.88
2018-09-29T11:52:49.024Z,191.25
2018-09-29T11:53:49.533Z,191.25
2018-09-29T11:54:50.768Z,196.88
2018-09-29T11:55:52.903Z,202.5
2018-09-29T11:56:53.452Z,196.88
2018-09-29T11:57:54.523Z,196.88
2018-09-29T11:58:56.162Z,191.25
2018-09-29T11:59:56.012Z,180
2018-09-29T12:00:56.801Z,180
2018-09-29T12:01:59.077Z,185.63
2018-09-29T12:02:58.472Z,191.25
2018-09-29T12:03:59.265Z,191.25
2018-09-29T12:05:00.613Z,191.25
2018-09-29T12:06:02.415Z,191.25
2018-09-29T12:07:03.622Z,191.25
2018-09-29T12:08:04.505Z,196.88
2018-09-29T12:09:03.643Z,213.75
2018-09-29T12:10:05.164Z,219.38
2018-09-29T12:11:06.513Z,213.75
2018-09-29T12:12:06.308Z,208.13
2018-09-29T12:13:06.828Z,202.5
2018-09-29T12:14:08.737Z,202.5
2018-09-29T12:15:08.253Z,208.13
2018-09-29T12:16:09.050Z,208.13
2018-09-29T12:17:10.399Z,213.75
2018-09-29T12:18:10.910Z,219.38
2018-09-29T12:19:11.426Z,225
2018-09-29T12:20:12.953Z,219.38
2018-09-29T12:21:15.441Z,208.13
2018-09-29T12:22:15.281Z,208.13
2018-09-29T12:23:15.741Z,202.5
2018-09-29T12:24:16.811Z,202.5
2018-09-29T12:25:17.881Z,202.5
2018-09-29T12:26:18.682Z,191.25
2018-09-29T12:27:24.917Z,174.38
2018-09-29T12:27:31.753Z,174.38
2018-09-29T12:28:32.997Z,163.13
2018-09-29T12:29:34.421Z,163.13
2018-09-29T12:30:33.953Z,174.38
2018-09-29T12:31:35.577Z,185.63
2018-09-29T12:32:35.387Z,180
2018-09-29T12:33:35.912Z,157.5
2018-09-29T12:34:37.000Z,146.25
2018-09-29T12:35:36.523Z,140.63
2018-09-29T12:36:37.314Z,140.63
2018-09-29T12:37:39.545Z,157.5
2018-09-29T12:38:39.301Z,168.75
2018-09-29T12:39:39.816Z,174.38
2018-09-29T12:40:44.059Z,185.63
2018-09-29T12:41:42.934Z,185.63
2018-09-29T12:42:45.430Z,191.25
2018-09-29T12:43:45.061Z,196.88
2018-09-29T12:44:46.600Z,202.5
2018-09-29T12:45:46.727Z,213.75
2018-09-29T12:46:47.250Z,208.13
2018-09-29T12:47:48.043Z,208.13
2018-09-29T12:48:48.845Z,213.75
2018-09-29T12:49:49.651Z,247.5
2018-09-29T12:50:50.443Z,281.25
2018-09-29T12:51:51.845Z,275.63
2018-09-29T12:52:52.378Z,270
2018-09-29T12:53:53.448Z,281.25
2018-09-29T12:54:54.837Z,281.25
2018-09-29T12:55:54.646Z,292.5
2018-09-29T12:56:55.437Z,286.88
2018-09-29T12:57:56.233Z,281.25
2018-09-29T12:58:57.367Z,270
2018-09-29T12:59:57.608Z,264.38
2018-09-29T13:00:58.954Z,303.75
2018-09-29T13:02:00.302Z,376.88
2018-09-29T13:03:01.097Z,427.5
2018-09-29T13:04:02.162Z,433.13
2018-09-29T13:05:03.710Z,410.63
2018-09-29T13:06:03.556Z,382.5
2018-09-29T13:07:04.628Z,360
2018-09-29T13:08:06.254Z,421.88
2018-09-29T13:09:06.796Z,551.25
2018-09-29T13:10:07.308Z,630
2018-09-29T13:11:09.601Z,371.25
2018-09-29T13:12:09.435Z,343.13
2018-09-29T13:13:10.781Z,320.63
2018-09-29T13:14:12.124Z,337.5
2018-09-29T13:15:12.920Z,360
2018-09-29T13:16:14.278Z,348.75
2018-09-29T13:17:14.622Z,309.38
2018-09-29T13:18:15.143Z,286.88
2018-09-29T13:19:16.687Z,326.25
2018-09-29T13:20:18.321Z,360
2018-09-29T13:21:17.838Z,399.38
2018-09-29T13:22:18.355Z,433.13
2018-09-29T13:23:19.146Z,461.25
2018-09-29T13:24:19.937Z,393.75
2018-09-29T13:25:20.732Z,393.75
2018-09-29T13:26:21.248Z,410.63
2018-09-29T13:27:22.051Z,405
2018-09-29T13:28:23.672Z,399.38
2018-09-29T13:29:23.690Z,371.25
2018-09-29T13:30:25.036Z,371.25
2018-09-29T13:31:25.828Z,405
2018-09-29T13:32:27.181Z,405
2018-09-29T13:33:26.980Z,365.63
2018-09-29T13:34:29.332Z,320.63
2018-09-29T13:35:28.850Z,286.88
2018-09-29T13:36:29.368Z,270
2018-09-29T13:37:31.441Z,309.38
2018-09-29T13:38:32.233Z,382.5
2018-09-29T13:39:33.495Z,1305
2018-09-29T13:40:34.569Z,928.13